sensor_id;sensor_type;location;lat;lon;timestamp;P1;durP1;ratioP1;P2;durP2;ratioP2
39140;SDS011;24875;48.436;10.298;2023-06-22T00:01:09;4.78;;;2.38;;
39140;SDS011;24875;48.436;10.298;2023-06-22T00:03:35;3.83;;;2.20;;
39140;SDS011;24875;48.436;10.298;2023-06-22T00:06:01;4.10;;;2.08;;
39140;SDS011;24875;48.436;10.298;2023-06-22T00:08:28;3.30;;;1.75;;
39140;SDS011;24875;48.436;10.298;2023-06-22T00:10:54;4.40;;;2.20;;
39140;SDS011;24875;48.436;10.298;2023-06-22T00:13:22;3.83;;;2.00;;
39140;SDS011;24875;48.436;10.298;2023-06-22T00:15:49;3.88;;;1.80;;
39140;SDS011;24875;48.436;10.298;2023-06-22T00:18:15;6.13;;;3.15;;
39140;SDS011;24875;48.436;10.298;2023-06-22T00:20:41;3.65;;;1.85;;
39140;SDS011;24875;48.436;10.298;2023-06-22T00:23:10;5.38;;;2.92;;
39140;SDS011;24875;48.436;10.298;2023-06-22T00:25:42;11.80;;;4.13;;
39140;SDS011;24875;48.436;10.298;2023-06-22T00:28:08;13.63;;;5.43;;
39140;SDS011;24875;48.436;10.298;2023-06-22T00:30:36;16.02;;;5.68;;
39140;SDS011;24875;48.436;10.298;2023-06-22T00:33:03;15.77;;;6.60;;
39140;SDS011;24875;48.436;10.298;2023-06-22T00:35:32;16.90;;;6.35;;
39140;SDS011;24875;48.436;10.298;2023-06-22T00:38:00;11.52;;;5.30;;
39140;SDS011;24875;48.436;10.298;2023-06-22T00:40:27;16.00;;;6.50;;
39140;SDS011;24875;48.436;10.298;2023-06-22T00:42:54;15.30;;;6.30;;
39140;SDS011;24875;48.436;10.298;2023-06-22T00:45:20;13.38;;;6.75;;
39140;SDS011;24875;48.436;10.298;2023-06-22T00:47:49;7.68;;;3.92;;
39140;SDS011;24875;48.436;10.298;2023-06-22T00:50:18;8.00;;;3.05;;
39140;SDS011;24875;48.436;10.298;2023-06-22T00:52:47;3.78;;;2.47;;
39140;SDS011;24875;48.436;10.298;2023-06-22T00:55:17;9.90;;;3.08;;
39140;SDS011;24875;48.436;10.298;2023-06-22T00:57:44;6.30;;;2.58;;
39140;SDS011;24875;48.436;10.298;2023-06-22T01:00:12;6.53;;;2.17;;
39140;SDS011;24875;48.436;10.298;2023-06-22T01:02:44;8.40;;;2.60;;
39140;SDS011;24875;48.436;10.298;2023-06-22T01:05:13;5.10;;;2.40;;
39140;SDS011;24875;48.436;10.298;2023-06-22T01:07:42;5.65;;;2.75;;
39140;SDS011;24875;48.436;10.298;2023-06-22T01:10:19;8.88;;;3.53;;
39140;SDS011;24875;48.436;10.298;2023-06-22T01:12:52;7.05;;;2.50;;
39140;SDS011;24875;48.436;10.298;2023-06-22T01:15:21;7.10;;;2.80;;
39140;SDS011;24875;48.436;10.298;2023-06-22T01:17:54;6.22;;;2.85;;
39140;SDS011;24875;48.436;10.298;2023-06-22T01:20:24;4.22;;;2.15;;
39140;SDS011;24875;48.436;10.298;2023-06-22T01:22:57;7.47;;;2.65;;
39140;SDS011;24875;48.436;10.298;2023-06-22T01:25:33;6.88;;;3.30;;
39140;SDS011;24875;48.436;10.298;2023-06-22T01:28:11;6.80;;;3.08;;
39140;SDS011;24875;48.436;10.298;2023-06-22T01:30:50;8.88;;;3.20;;
39140;SDS011;24875;48.436;10.298;2023-06-22T01:33:28;5.63;;;3.10;;
39140;SDS011;24875;48.436;10.298;2023-06-22T01:35:55;4.95;;;2.78;;
39140;SDS011;24875;48.436;10.298;2023-06-22T01:38:22;5.40;;;2.60;;
39140;SDS011;24875;48.436;10.298;2023-06-22T01:40:48;6.20;;;2.78;;
39140;SDS011;24875;48.436;10.298;2023-06-22T01:43:16;5.07;;;2.65;;
39140;SDS011;24875;48.436;10.298;2023-06-22T01:45:42;8.40;;;2.78;;
39140;SDS011;24875;48.436;10.298;2023-06-22T01:48:10;7.68;;;3.05;;
39140;SDS011;24875;48.436;10.298;2023-06-22T01:50:37;6.70;;;2.75;;
39140;SDS011;24875;48.436;10.298;2023-06-22T01:53:04;4.90;;;2.55;;
39140;SDS011;24875;48.436;10.298;2023-06-22T01:55:31;9.52;;;3.45;;
39140;SDS011;24875;48.436;10.298;2023-06-22T01:57:58;6.03;;;3.20;;
39140;SDS011;24875;48.436;10.298;2023-06-22T02:00:25;5.65;;;2.92;;
39140;SDS011;24875;48.436;10.298;2023-06-22T02:02:56;8.02;;;3.88;;
39140;SDS011;24875;48.436;10.298;2023-06-22T02:05:28;7.82;;;2.97;;
39140;SDS011;24875;48.436;10.298;2023-06-22T02:08:00;6.95;;;3.42;;
39140;SDS011;24875;48.436;10.298;2023-06-22T02:10:32;10.65;;;4.68;;
39140;SDS011;24875;48.436;10.298;2023-06-22T02:13:01;7.85;;;3.90;;
39140;SDS011;24875;48.436;10.298;2023-06-22T02:15:30;7.18;;;3.83;;
39140;SDS011;24875;48.436;10.298;2023-06-22T02:17:57;14.27;;;3.55;;
39140;SDS011;24875;48.436;10.298;2023-06-22T02:20:24;7.50;;;3.60;;
39140;SDS011;24875;48.436;10.298;2023-06-22T02:22:51;11.88;;;4.32;;
39140;SDS011;24875;48.436;10.298;2023-06-22T02:25:18;7.72;;;3.88;;
39140;SDS011;24875;48.436;10.298;2023-06-22T02:27:45;5.25;;;2.85;;
39140;SDS011;24875;48.436;10.298;2023-06-22T02:30:11;13.63;;;3.60;;
39140;SDS011;24875;48.436;10.298;2023-06-22T02:32:40;5.80;;;3.13;;
39140;SDS011;24875;48.436;10.298;2023-06-22T02:35:08;8.73;;;3.30;;
39140;SDS011;24875;48.436;10.298;2023-06-22T02:37:35;7.68;;;4.10;;
39140;SDS011;24875;48.436;10.298;2023-06-22T02:40:06;5.18;;;3.08;;
39140;SDS011;24875;48.436;10.298;2023-06-22T02:42:34;13.18;;;3.85;;
39140;SDS011;24875;48.436;10.298;2023-06-22T02:45:00;6.45;;;3.40;;
39140;SDS011;24875;48.436;10.298;2023-06-22T02:47:26;7.40;;;3.28;;
39140;SDS011;24875;48.436;10.298;2023-06-22T02:49:53;7.78;;;3.40;;
39140;SDS011;24875;48.436;10.298;2023-06-22T02:52:19;6.78;;;3.22;;
39140;SDS011;24875;48.436;10.298;2023-06-22T02:54:46;9.15;;;3.65;;
39140;SDS011;24875;48.436;10.298;2023-06-22T02:57:14;8.70;;;3.42;;
39140;SDS011;24875;48.436;10.298;2023-06-22T02:59:40;8.45;;;3.75;;
39140;SDS011;24875;48.436;10.298;2023-06-22T03:02:07;6.25;;;2.88;;
39140;SDS011;24875;48.436;10.298;2023-06-22T03:04:33;7.25;;;3.63;;
39140;SDS011;24875;48.436;10.298;2023-06-22T03:07:00;6.38;;;3.13;;
39140;SDS011;24875;48.436;10.298;2023-06-22T03:09:27;14.27;;;3.97;;
39140;SDS011;24875;48.436;10.298;2023-06-22T03:11:54;6.10;;;2.90;;
39140;SDS011;24875;48.436;10.298;2023-06-22T03:14:21;8.40;;;3.47;;
39140;SDS011;24875;48.436;10.298;2023-06-22T03:16:48;8.13;;;3.33;;
39140;SDS011;24875;48.436;10.298;2023-06-22T03:19:14;8.20;;;3.58;;
39140;SDS011;24875;48.436;10.298;2023-06-22T03:21:41;9.00;;;4.32;;
39140;SDS011;24875;48.436;10.298;2023-06-22T03:24:07;7.03;;;3.35;;
39140;SDS011;24875;48.436;10.298;2023-06-22T03:26:34;6.50;;;3.40;;
39140;SDS011;24875;48.436;10.298;2023-06-22T03:29:00;7.95;;;3.65;;
39140;SDS011;24875;48.436;10.298;2023-06-22T03:31:28;9.45;;;4.32;;
39140;SDS011;24875;48.436;10.298;2023-06-22T03:33:55;10.70;;;4.50;;
39140;SDS011;24875;48.436;10.298;2023-06-22T03:36:21;7.13;;;3.80;;
39140;SDS011;24875;48.436;10.298;2023-06-22T03:38:48;9.32;;;3.70;;
39140;SDS011;24875;48.436;10.298;2023-06-22T03:41:16;6.90;;;3.80;;
39140;SDS011;24875;48.436;10.298;2023-06-22T03:43:43;10.18;;;3.97;;
39140;SDS011;24875;48.436;10.298;2023-06-22T03:46:09;9.82;;;3.10;;
39140;SDS011;24875;48.436;10.298;2023-06-22T03:48:37;6.43;;;3.33;;
39140;SDS011;24875;48.436;10.298;2023-06-22T03:51:04;6.20;;;2.90;;
39140;SDS011;24875;48.436;10.298;2023-06-22T03:53:30;8.55;;;3.75;;
39140;SDS011;24875;48.436;10.298;2023-06-22T03:55:56;9.80;;;3.70;;
39140;SDS011;24875;48.436;10.298;2023-06-22T03:58:23;7.43;;;3.22;;
39140;SDS011;24875;48.436;10.298;2023-06-22T04:00:50;6.20;;;3.58;;
39140;SDS011;24875;48.436;10.298;2023-06-22T04:03:18;9.52;;;4.45;;
39140;SDS011;24875;48.436;10.298;2023-06-22T04:05:46;8.65;;;3.38;;
39140;SDS011;24875;48.436;10.298;2023-06-22T04:08:13;8.27;;;4.03;;
39140;SDS011;24875;48.436;10.298;2023-06-22T04:10:40;18.73;;;3.70;;
39140;SDS011;24875;48.436;10.298;2023-06-22T04:13:07;9.52;;;4.88;;
39140;SDS011;24875;48.436;10.298;2023-06-22T04:15:33;9.45;;;3.88;;
39140;SDS011;24875;48.436;10.298;2023-06-22T04:18:00;8.23;;;3.60;;
39140;SDS011;24875;48.436;10.298;2023-06-22T04:20:26;10.00;;;3.63;;
39140;SDS011;24875;48.436;10.298;2023-06-22T04:22:54;6.70;;;3.70;;
39140;SDS011;24875;48.436;10.298;2023-06-22T04:25:20;10.77;;;3.78;;
39140;SDS011;24875;48.436;10.298;2023-06-22T04:27:48;8.45;;;3.72;;
39140;SDS011;24875;48.436;10.298;2023-06-22T04:30:14;13.02;;;4.53;;
39140;SDS011;24875;48.436;10.298;2023-06-22T04:32:42;12.50;;;3.80;;
39140;SDS011;24875;48.436;10.298;2023-06-22T04:35:08;10.93;;;3.90;;
39140;SDS011;24875;48.436;10.298;2023-06-22T04:37:35;6.90;;;3.05;;
39140;SDS011;24875;48.436;10.298;2023-06-22T04:40:03;8.00;;;2.67;;
39140;SDS011;24875;48.436;10.298;2023-06-22T04:42:30;11.15;;;4.60;;
39140;SDS011;24875;48.436;10.298;2023-06-22T04:44:57;6.03;;;3.00;;
39140;SDS011;24875;48.436;10.298;2023-06-22T04:47:23;8.77;;;2.53;;
39140;SDS011;24875;48.436;10.298;2023-06-22T04:49:50;4.85;;;2.55;;
39140;SDS011;24875;48.436;10.298;2023-06-22T04:52:16;5.35;;;3.08;;
39140;SDS011;24875;48.436;10.298;2023-06-22T04:54:45;5.75;;;2.97;;
39140;SDS011;24875;48.436;10.298;2023-06-22T04:57:15;4.82;;;2.35;;
39140;SDS011;24875;48.436;10.298;2023-06-22T04:59:41;9.35;;;4.05;;
39140;SDS011;24875;48.436;10.298;2023-06-22T05:02:09;5.97;;;2.60;;
39140;SDS011;24875;48.436;10.298;2023-06-22T05:04:35;5.75;;;2.90;;
39140;SDS011;24875;48.436;10.298;2023-06-22T05:07:04;5.95;;;2.38;;
39140;SDS011;24875;48.436;10.298;2023-06-22T05:09:31;8.68;;;3.78;;
39140;SDS011;24875;48.436;10.298;2023-06-22T05:11:58;5.25;;;2.75;;
39140;SDS011;24875;48.436;10.298;2023-06-22T05:14:28;6.35;;;2.90;;
39140;SDS011;24875;48.436;10.298;2023-06-22T05:16:55;6.93;;;2.65;;
39140;SDS011;24875;48.436;10.298;2023-06-22T05:19:23;7.35;;;3.03;;
39140;SDS011;24875;48.436;10.298;2023-06-22T05:21:50;7.25;;;3.03;;
39140;SDS011;24875;48.436;10.298;2023-06-22T05:24:16;7.47;;;2.70;;
39140;SDS011;24875;48.436;10.298;2023-06-22T05:26:43;7.10;;;2.70;;
39140;SDS011;24875;48.436;10.298;2023-06-22T05:29:09;5.85;;;2.83;;
39140;SDS011;24875;48.436;10.298;2023-06-22T05:31:37;6.57;;;2.63;;
39140;SDS011;24875;48.436;10.298;2023-06-22T05:34:05;4.60;;;3.03;;
39140;SDS011;24875;48.436;10.298;2023-06-22T05:36:31;9.20;;;2.40;;
39140;SDS011;24875;48.436;10.298;2023-06-22T05:38:57;9.18;;;2.85;;
39140;SDS011;24875;48.436;10.298;2023-06-22T05:41:24;10.45;;;3.13;;
39140;SDS011;24875;48.436;10.298;2023-06-22T05:43:50;4.50;;;2.53;;
39140;SDS011;24875;48.436;10.298;2023-06-22T05:46:17;5.47;;;2.60;;
39140;SDS011;24875;48.436;10.298;2023-06-22T05:48:46;6.20;;;2.85;;
39140;SDS011;24875;48.436;10.298;2023-06-22T05:51:12;4.57;;;2.35;;
39140;SDS011;24875;48.436;10.298;2023-06-22T05:53:39;4.88;;;2.33;;
39140;SDS011;24875;48.436;10.298;2023-06-22T05:56:05;4.75;;;2.28;;
39140;SDS011;24875;48.436;10.298;2023-06-22T05:58:32;4.47;;;2.13;;
39140;SDS011;24875;48.436;10.298;2023-06-22T06:00:58;6.75;;;2.63;;
39140;SDS011;24875;48.436;10.298;2023-06-22T06:03:25;5.00;;;2.42;;
39140;SDS011;24875;48.436;10.298;2023-06-22T06:05:55;5.10;;;2.28;;
39140;SDS011;24875;48.436;10.298;2023-06-22T06:08:21;7.00;;;2.42;;
39140;SDS011;24875;48.436;10.298;2023-06-22T06:10:48;6.30;;;2.28;;
39140;SDS011;24875;48.436;10.298;2023-06-22T06:13:14;3.22;;;1.63;;
39140;SDS011;24875;48.436;10.298;2023-06-22T06:15:41;4.63;;;2.10;;
39140;SDS011;24875;48.436;10.298;2023-06-22T06:18:07;3.88;;;2.22;;
39140;SDS011;24875;48.436;10.298;2023-06-22T06:20:34;6.80;;;2.25;;
39140;SDS011;24875;48.436;10.298;2023-06-22T06:23:02;6.85;;;2.05;;
39140;SDS011;24875;48.436;10.298;2023-06-22T06:25:28;3.20;;;1.70;;
39140;SDS011;24875;48.436;10.298;2023-06-22T06:27:55;5.70;;;2.03;;
39140;SDS011;24875;48.436;10.298;2023-06-22T06:30:21;3.75;;;1.83;;
39140;SDS011;24875;48.436;10.298;2023-06-22T06:32:48;3.28;;;1.88;;
39140;SDS011;24875;48.436;10.298;2023-06-22T06:35:15;3.85;;;2.10;;
39140;SDS011;24875;48.436;10.298;2023-06-22T06:37:43;4.85;;;2.25;;
39140;SDS011;24875;48.436;10.298;2023-06-22T06:40:12;5.32;;;1.95;;
39140;SDS011;24875;48.436;10.298;2023-06-22T06:42:40;4.22;;;1.92;;
39140;SDS011;24875;48.436;10.298;2023-06-22T06:45:09;10.60;;;2.75;;
39140;SDS011;24875;48.436;10.298;2023-06-22T06:47:36;5.55;;;1.92;;
39140;SDS011;24875;48.436;10.298;2023-06-22T06:50:03;5.38;;;2.15;;
39140;SDS011;24875;48.436;10.298;2023-06-22T06:52:30;6.07;;;2.03;;
39140;SDS011;24875;48.436;10.298;2023-06-22T06:54:57;5.75;;;2.30;;
39140;SDS011;24875;48.436;10.298;2023-06-22T06:57:25;7.35;;;2.40;;
39140;SDS011;24875;48.436;10.298;2023-06-22T06:59:53;6.38;;;2.20;;
39140;SDS011;24875;48.436;10.298;2023-06-22T07:02:20;6.25;;;2.17;;
39140;SDS011;24875;48.436;10.298;2023-06-22T07:04:47;5.90;;;2.63;;
39140;SDS011;24875;48.436;10.298;2023-06-22T07:07:13;3.60;;;1.90;;
39140;SDS011;24875;48.436;10.298;2023-06-22T07:09:40;4.35;;;1.92;;
39140;SDS011;24875;48.436;10.298;2023-06-22T07:12:07;8.40;;;2.42;;
39140;SDS011;24875;48.436;10.298;2023-06-22T07:14:35;4.15;;;2.03;;
39140;SDS011;24875;48.436;10.298;2023-06-22T07:17:01;4.18;;;2.13;;
39140;SDS011;24875;48.436;10.298;2023-06-22T07:19:28;3.45;;;1.80;;
39140;SDS011;24875;48.436;10.298;2023-06-22T07:21:55;3.22;;;1.67;;
39140;SDS011;24875;48.436;10.298;2023-06-22T07:24:21;3.13;;;1.75;;
39140;SDS011;24875;48.436;10.298;2023-06-22T07:26:48;8.00;;;3.30;;
39140;SDS011;24875;48.436;10.298;2023-06-22T07:29:15;5.25;;;1.85;;
39140;SDS011;24875;48.436;10.298;2023-06-22T07:31:43;5.00;;;2.40;;
39140;SDS011;24875;48.436;10.298;2023-06-22T07:34:10;8.45;;;2.45;;
39140;SDS011;24875;48.436;10.298;2023-06-22T07:36:36;5.88;;;2.17;;
39140;SDS011;24875;48.436;10.298;2023-06-22T07:39:03;5.10;;;2.55;;
39140;SDS011;24875;48.436;10.298;2023-06-22T07:41:30;4.38;;;2.13;;
39140;SDS011;24875;48.436;10.298;2023-06-22T07:43:56;7.20;;;2.83;;
39140;SDS011;24875;48.436;10.298;2023-06-22T07:46:23;8.52;;;2.42;;
39140;SDS011;24875;48.436;10.298;2023-06-22T07:48:51;11.02;;;2.65;;
39140;SDS011;24875;48.436;10.298;2023-06-22T07:51:17;5.97;;;1.80;;
39140;SDS011;24875;48.436;10.298;2023-06-22T07:53:44;4.25;;;2.28;;
39140;SDS011;24875;48.436;10.298;2023-06-22T07:56:10;6.70;;;1.95;;
39140;SDS011;24875;48.436;10.298;2023-06-22T07:58:37;7.90;;;2.40;;
39140;SDS011;24875;48.436;10.298;2023-06-22T08:01:03;5.85;;;2.05;;
39140;SDS011;24875;48.436;10.298;2023-06-22T08:03:31;6.93;;;1.70;;
39140;SDS011;24875;48.436;10.298;2023-06-22T08:05:58;4.38;;;2.22;;
39140;SDS011;24875;48.436;10.298;2023-06-22T08:08:25;5.13;;;2.20;;
39140;SDS011;24875;48.436;10.298;2023-06-22T08:10:51;5.97;;;2.13;;
39140;SDS011;24875;48.436;10.298;2023-06-22T08:13:18;5.68;;;2.15;;
39140;SDS011;24875;48.436;10.298;2023-06-22T08:15:44;5.25;;;2.50;;
39140;SDS011;24875;48.436;10.298;2023-06-22T08:18:11;5.28;;;2.33;;
39140;SDS011;24875;48.436;10.298;2023-06-22T08:20:37;4.50;;;1.90;;
39140;SDS011;24875;48.436;10.298;2023-06-22T08:23:05;4.90;;;1.77;;
39140;SDS011;24875;48.436;10.298;2023-06-22T08:25:32;9.07;;;2.85;;
39140;SDS011;24875;48.436;10.298;2023-06-22T08:27:59;4.47;;;1.92;;
39140;SDS011;24875;48.436;10.298;2023-06-22T08:30:25;5.45;;;2.20;;
39140;SDS011;24875;48.436;10.298;2023-06-22T08:32:52;3.75;;;1.95;;
39140;SDS011;24875;48.436;10.298;2023-06-22T08:35:18;5.38;;;2.58;;
39140;SDS011;24875;48.436;10.298;2023-06-22T08:37:45;5.18;;;2.25;;
39140;SDS011;24875;48.436;10.298;2023-06-22T08:40:18;4.65;;;2.88;;
39140;SDS011;24875;48.436;10.298;2023-06-22T08:42:45;6.05;;;2.50;;
39140;SDS011;24875;48.436;10.298;2023-06-22T08:45:13;8.82;;;2.78;;
39140;SDS011;24875;48.436;10.298;2023-06-22T08:47:39;4.75;;;2.20;;
39140;SDS011;24875;48.436;10.298;2023-06-22T08:50:07;7.05;;;2.60;;
39140;SDS011;24875;48.436;10.298;2023-06-22T08:52:34;6.32;;;2.70;;
39140;SDS011;24875;48.436;10.298;2023-06-22T08:55:01;7.75;;;2.38;;
39140;SDS011;24875;48.436;10.298;2023-06-22T08:57:29;6.43;;;2.08;;
39140;SDS011;24875;48.436;10.298;2023-06-22T08:59:57;6.70;;;2.08;;
39140;SDS011;24875;48.436;10.298;2023-06-22T09:02:24;7.60;;;3.17;;
39140;SDS011;24875;48.436;10.298;2023-06-22T09:04:50;9.00;;;2.45;;
39140;SDS011;24875;48.436;10.298;2023-06-22T09:07:20;3.97;;;2.30;;
39140;SDS011;24875;48.436;10.298;2023-06-22T09:09:48;8.57;;;2.88;;
39140;SDS011;24875;48.436;10.298;2023-06-22T09:12:15;8.65;;;2.60;;
39140;SDS011;24875;48.436;10.298;2023-06-22T09:14:43;5.75;;;2.40;;
39140;SDS011;24875;48.436;10.298;2023-06-22T09:17:09;6.30;;;2.42;;
39140;SDS011;24875;48.436;10.298;2023-06-22T09:19:35;3.60;;;1.98;;
39140;SDS011;24875;48.436;10.298;2023-06-22T09:22:02;4.25;;;2.25;;
39140;SDS011;24875;48.436;10.298;2023-06-22T09:24:31;8.02;;;2.75;;
39140;SDS011;24875;48.436;10.298;2023-06-22T09:26:57;6.03;;;2.55;;
39140;SDS011;24875;48.436;10.298;2023-06-22T09:29:23;5.55;;;1.85;;
39140;SDS011;24875;48.436;10.298;2023-06-22T09:31:51;5.80;;;2.63;;
39140;SDS011;24875;48.436;10.298;2023-06-22T09:34:18;5.45;;;2.60;;
39140;SDS011;24875;48.436;10.298;2023-06-22T09:36:45;6.38;;;2.58;;
39140;SDS011;24875;48.436;10.298;2023-06-22T09:39:11;7.30;;;3.13;;
39140;SDS011;24875;48.436;10.298;2023-06-22T09:41:38;5.57;;;2.53;;
39140;SDS011;24875;48.436;10.298;2023-06-22T09:44:04;5.03;;;2.08;;
39140;SDS011;24875;48.436;10.298;2023-06-22T09:46:31;3.45;;;2.22;;
39140;SDS011;24875;48.436;10.298;2023-06-22T09:48:59;5.70;;;2.78;;
39140;SDS011;24875;48.436;10.298;2023-06-22T09:51:25;7.28;;;3.05;;
39140;SDS011;24875;48.436;10.298;2023-06-22T09:53:51;5.07;;;2.40;;
39140;SDS011;24875;48.436;10.298;2023-06-22T09:56:18;3.22;;;2.22;;
39140;SDS011;24875;48.436;10.298;2023-06-22T09:58:46;7.70;;;3.22;;
39140;SDS011;24875;48.436;10.298;2023-06-22T10:01:15;6.10;;;2.50;;
39140;SDS011;24875;48.436;10.298;2023-06-22T10:03:41;3.72;;;1.98;;
39140;SDS011;24875;48.436;10.298;2023-06-22T10:06:09;6.32;;;2.45;;
39140;SDS011;24875;48.436;10.298;2023-06-22T10:08:36;5.75;;;2.38;;
39140;SDS011;24875;48.436;10.298;2023-06-22T10:11:02;5.13;;;2.30;;
39140;SDS011;24875;48.436;10.298;2023-06-22T10:13:29;9.93;;;2.78;;
39140;SDS011;24875;48.436;10.298;2023-06-22T10:15:56;5.90;;;2.25;;
39140;SDS011;24875;48.436;10.298;2023-06-22T10:18:22;4.60;;;2.33;;
39140;SDS011;24875;48.436;10.298;2023-06-22T10:20:49;9.07;;;2.65;;
39140;SDS011;24875;48.436;10.298;2023-06-22T10:23:18;5.32;;;2.25;;
39140;SDS011;24875;48.436;10.298;2023-06-22T10:25:45;5.07;;;2.40;;
39140;SDS011;24875;48.436;10.298;2023-06-22T10:28:11;5.18;;;2.35;;
39140;SDS011;24875;48.436;10.298;2023-06-22T10:30:38;8.60;;;2.45;;
39140;SDS011;24875;48.436;10.298;2023-06-22T10:33:06;6.55;;;2.83;;
39140;SDS011;24875;48.436;10.298;2023-06-22T10:35:32;9.50;;;2.38;;
39140;SDS011;24875;48.436;10.298;2023-06-22T10:37:59;7.32;;;3.08;;
39140;SDS011;24875;48.436;10.298;2023-06-22T10:40:27;5.63;;;2.78;;
39140;SDS011;24875;48.436;10.298;2023-06-22T10:42:53;6.35;;;2.85;;
39140;SDS011;24875;48.436;10.298;2023-06-22T10:45:20;11.32;;;2.95;;
39140;SDS011;24875;48.436;10.298;2023-06-22T10:47:46;6.70;;;2.58;;
39140;SDS011;24875;48.436;10.298;2023-06-22T10:50:13;6.15;;;1.67;;
39140;SDS011;24875;48.436;10.298;2023-06-22T10:52:40;5.55;;;2.15;;
39140;SDS011;24875;48.436;10.298;2023-06-22T10:55:07;5.13;;;2.65;;
39140;SDS011;24875;48.436;10.298;2023-06-22T10:57:35;5.88;;;3.45;;
39140;SDS011;24875;48.436;10.298;2023-06-22T11:00:04;6.97;;;2.67;;
39140;SDS011;24875;48.436;10.298;2023-06-22T11:02:32;4.85;;;2.17;;
39140;SDS011;24875;48.436;10.298;2023-06-22T11:04:59;5.05;;;2.47;;
39140;SDS011;24875;48.436;10.298;2023-06-22T11:07:25;6.28;;;2.47;;
39140;SDS011;24875;48.436;10.298;2023-06-22T11:09:53;5.03;;;2.35;;
39140;SDS011;24875;48.436;10.298;2023-06-22T11:12:20;7.22;;;2.58;;
39140;SDS011;24875;48.436;10.298;2023-06-22T11:14:48;6.07;;;2.60;;
39140;SDS011;24875;48.436;10.298;2023-06-22T11:17:16;4.72;;;2.53;;
39140;SDS011;24875;48.436;10.298;2023-06-22T11:19:43;6.68;;;2.85;;
39140;SDS011;24875;48.436;10.298;2023-06-22T11:22:10;7.75;;;2.45;;
39140;SDS011;24875;48.436;10.298;2023-06-22T11:24:36;5.15;;;1.80;;
39140;SDS011;24875;48.436;10.298;2023-06-22T11:27:03;8.80;;;2.15;;
39140;SDS011;24875;48.436;10.298;2023-06-22T11:29:29;11.48;;;2.95;;
39140;SDS011;24875;48.436;10.298;2023-06-22T11:31:58;10.07;;;2.22;;
39140;SDS011;24875;48.436;10.298;2023-06-22T11:34:24;13.20;;;2.50;;
39140;SDS011;24875;48.436;10.298;2023-06-22T11:36:51;4.63;;;2.00;;
39140;SDS011;24875;48.436;10.298;2023-06-22T11:39:17;4.32;;;1.88;;
39140;SDS011;24875;48.436;10.298;2023-06-22T11:41:44;5.35;;;1.92;;
39140;SDS011;24875;48.436;10.298;2023-06-22T11:44:10;10.63;;;2.90;;
39140;SDS011;24875;48.436;10.298;2023-06-22T11:46:37;4.28;;;2.42;;
39140;SDS011;24875;48.436;10.298;2023-06-22T11:49:04;7.72;;;2.17;;
39140;SDS011;24875;48.436;10.298;2023-06-22T11:51:31;4.15;;;2.20;;
39140;SDS011;24875;48.436;10.298;2023-06-22T11:53:57;4.50;;;2.22;;
39140;SDS011;24875;48.436;10.298;2023-06-22T11:56:24;6.40;;;2.72;;
39140;SDS011;24875;48.436;10.298;2023-06-22T11:58:52;5.13;;;2.60;;
39140;SDS011;24875;48.436;10.298;2023-06-22T12:01:19;6.68;;;2.78;;
39140;SDS011;24875;48.436;10.298;2023-06-22T12:03:46;9.48;;;3.30;;
39140;SDS011;24875;48.436;10.298;2023-06-22T12:06:14;5.15;;;2.10;;
39140;SDS011;24875;48.436;10.298;2023-06-22T12:08:41;7.65;;;2.15;;
39140;SDS011;24875;48.436;10.298;2023-06-22T12:11:07;4.47;;;2.20;;
39140;SDS011;24875;48.436;10.298;2023-06-22T12:13:34;7.30;;;2.10;;
39140;SDS011;24875;48.436;10.298;2023-06-22T12:16:00;3.83;;;2.05;;
39140;SDS011;24875;48.436;10.298;2023-06-22T12:18:27;7.90;;;2.25;;
39140;SDS011;24875;48.436;10.298;2023-06-22T12:20:53;8.60;;;2.10;;
39140;SDS011;24875;48.436;10.298;2023-06-22T12:23:21;6.30;;;2.38;;
39140;SDS011;24875;48.436;10.298;2023-06-22T12:25:48;8.55;;;2.83;;
39140;SDS011;24875;48.436;10.298;2023-06-22T12:28:14;2.50;;;1.30;;
39140;SDS011;24875;48.436;10.298;2023-06-22T12:30:41;5.25;;;1.60;;
39140;SDS011;24875;48.436;10.298;2023-06-22T12:33:07;7.78;;;2.40;;
39140;SDS011;24875;48.436;10.298;2023-06-22T12:35:34;7.60;;;2.30;;
39140;SDS011;24875;48.436;10.298;2023-06-22T12:38:00;5.97;;;1.95;;
39140;SDS011;24875;48.436;10.298;2023-06-22T12:40:29;8.00;;;3.15;;
39140;SDS011;24875;48.436;10.298;2023-06-22T12:42:55;6.05;;;2.83;;
39140;SDS011;24875;48.436;10.298;2023-06-22T12:45:22;4.32;;;2.00;;
39140;SDS011;24875;48.436;10.298;2023-06-22T12:47:49;7.90;;;2.35;;
39140;SDS011;24875;48.436;10.298;2023-06-22T12:50:16;8.45;;;2.30;;
39140;SDS011;24875;48.436;10.298;2023-06-22T12:52:42;5.90;;;2.08;;
39140;SDS011;24875;48.436;10.298;2023-06-22T12:55:09;6.32;;;2.53;;
39140;SDS011;24875;48.436;10.298;2023-06-22T12:57:37;4.20;;;2.20;;
39140;SDS011;24875;48.436;10.298;2023-06-22T13:00:04;5.90;;;3.22;;
39140;SDS011;24875;48.436;10.298;2023-06-22T13:02:33;4.65;;;2.33;;
39140;SDS011;24875;48.436;10.298;2023-06-22T13:04:59;6.32;;;2.70;;
39140;SDS011;24875;48.436;10.298;2023-06-22T13:07:26;7.00;;;3.03;;
39140;SDS011;24875;48.436;10.298;2023-06-22T13:09:52;5.75;;;2.75;;
39140;SDS011;24875;48.436;10.298;2023-06-22T13:12:19;3.63;;;1.90;;
39140;SDS011;24875;48.436;10.298;2023-06-22T13:14:47;8.10;;;2.85;;
39140;SDS011;24875;48.436;10.298;2023-06-22T13:17:13;6.22;;;2.15;;
39140;SDS011;24875;48.436;10.298;2023-06-22T13:19:40;4.90;;;1.92;;
39140;SDS011;24875;48.436;10.298;2023-06-22T13:22:24;6.22;;;2.15;;
39140;SDS011;24875;48.436;10.298;2023-06-22T13:24:52;5.15;;;2.42;;
39140;SDS011;24875;48.436;10.298;2023-06-22T13:27:19;10.52;;;2.30;;
39140;SDS011;24875;48.436;10.298;2023-06-22T13:29:47;3.10;;;2.08;;
39140;SDS011;24875;48.436;10.298;2023-06-22T13:32:13;8.45;;;2.70;;
39140;SDS011;24875;48.436;10.298;2023-06-22T13:34:40;5.43;;;2.58;;
39140;SDS011;24875;48.436;10.298;2023-06-22T13:37:06;3.17;;;1.67;;
39140;SDS011;24875;48.436;10.298;2023-06-22T13:39:33;6.32;;;2.40;;
39140;SDS011;24875;48.436;10.298;2023-06-22T13:41:59;5.60;;;2.22;;
39140;SDS011;24875;48.436;10.298;2023-06-22T13:44:26;9.27;;;2.17;;
39140;SDS011;24875;48.436;10.298;2023-06-22T13:46:55;9.35;;;2.53;;
39140;SDS011;24875;48.436;10.298;2023-06-22T13:49:22;9.82;;;3.38;;
39140;SDS011;24875;48.436;10.298;2023-06-22T13:51:48;4.07;;;2.53;;
39140;SDS011;24875;48.436;10.298;2023-06-22T13:54:15;4.40;;;2.22;;
39140;SDS011;24875;48.436;10.298;2023-06-22T13:56:42;9.52;;;2.03;;
39140;SDS011;24875;48.436;10.298;2023-06-22T13:59:08;3.78;;;1.95;;
39140;SDS011;24875;48.436;10.298;2023-06-22T14:01:35;7.05;;;3.00;;
39140;SDS011;24875;48.436;10.298;2023-06-22T14:04:03;5.20;;;2.53;;
39140;SDS011;24875;48.436;10.298;2023-06-22T14:06:30;4.05;;;2.20;;
39140;SDS011;24875;48.436;10.298;2023-06-22T14:08:56;7.55;;;2.85;;
39140;SDS011;24875;48.436;10.298;2023-06-22T14:11:22;5.00;;;2.70;;
39140;SDS011;24875;48.436;10.298;2023-06-22T14:13:50;5.80;;;2.20;;
39140;SDS011;24875;48.436;10.298;2023-06-22T14:16:17;8.10;;;2.70;;
39140;SDS011;24875;48.436;10.298;2023-06-22T14:18:44;8.55;;;2.92;;
39140;SDS011;24875;48.436;10.298;2023-06-22T14:21:12;5.28;;;2.58;;
39140;SDS011;24875;48.436;10.298;2023-06-22T14:23:38;4.70;;;1.98;;
39140;SDS011;24875;48.436;10.298;2023-06-22T14:26:05;3.17;;;1.77;;
39140;SDS011;24875;48.436;10.298;2023-06-22T14:28:31;3.83;;;1.95;;
39140;SDS011;24875;48.436;10.298;2023-06-22T14:30:58;7.80;;;3.15;;
39140;SDS011;24875;48.436;10.298;2023-06-22T14:33:24;4.85;;;2.10;;